Time;durP1;ratioP1;P1;durP2;ratioP2;P2;SDS_P1;SDS_P2;PMS_P1;PMS_P2;Temp;Humidity;BMP_temperature;BMP_pressure;BME280_temperature;BME280_humidity;BME280_pressure;Samples;Min_cycle;Max_cycle;Signal;HPM_P1;HPM_P2
2022/07/17 00:00:00;;;;;;;6.93;3.10;;;13.10;99.90;;;;;;5073679;28;20052;-66
2022/07/17 00:02:26;;;;;;;7.78;2.50;;;13.00;99.90;;;;;;5073948;28;20390;-65
2022/07/17 00:04:52;;;;;;;6.57;2.75;;;13.00;99.90;;;;;;5073689;28;20041;-65
2022/07/17 00:07:17;;;;;;;6.20;2.53;;;12.90;99.90;;;;;;5073704;28;20041;-65
2022/07/17 00:09:43;;;;;;;9.90;3.15;;;12.90;99.90;;;;;;5073741;28;20036;-66
2022/07/17 00:12:09;;;;;;;6.07;3.17;;;12.90;99.90;;;;;;5073812;28;20037;-65
2022/07/17 00:14:34;;;;;;;9.45;3.40;;;12.90;99.90;;;;;;5073717;28;20024;-66
2022/07/17 00:17:00;;;;;;;8.35;2.53;;;12.90;99.90;;;;;;5073765;28;20051;-65
2022/07/17 00:19:26;;;;;;;4.72;2.75;;;12.90;99.90;;;;;;5073537;28;20396;-66
2022/07/17 00:21:51;;;;;;;6.70;3.10;;;12.80;99.90;;;;;;5073736;28;20382;-66
2022/07/17 00:24:19;;;;;;;6.85;3.63;;;12.70;99.90;;;;;;5072149;28;20048;-66
2022/07/17 00:26:52;;;;;;;5.95;3.30;;;12.80;99.90;;;;;;5073628;28;20040;-65
2022/07/17 00:29:18;;;;;;;7.63;3.25;;;12.80;99.90;;;;;;5073441;28;20037;-65
2022/07/17 00:31:44;;;;;;;8.43;2.97;;;12.80;99.90;;;;;;5073639;28;20090;-66
2022/07/17 00:34:10;;;;;;;9.27;3.70;;;12.70;99.90;;;;;;5076760;28;20085;-66
2022/07/17 00:36:36;;;;;;;6.82;3.22;;;12.80;99.90;;;;;;5077725;28;20040;-65
2022/07/17 00:39:02;;;;;;;5.60;2.95;;;12.80;99.90;;;;;;5077649;28;20044;-66
2022/07/17 00:41:28;;;;;;;4.25;2.75;;;12.60;99.90;;;;;;5077349;28;20036;-65
2022/07/17 00:43:54;;;;;;;7.10;3.25;;;12.60;99.90;;;;;;5077609;28;20077;-65
2022/07/17 00:46:20;;;;;;;7.55;2.90;;;12.60;99.90;;;;;;5075992;28;20055;-65
2022/07/17 00:48:46;;;;;;;5.97;2.75;;;12.60;99.90;;;;;;5077461;28;20068;-65
2022/07/17 00:51:12;;;;;;;4.85;2.55;;;12.50;99.90;;;;;;5077609;28;20091;-65
2022/07/17 00:53:39;;;;;;;7.40;3.10;;;12.50;99.90;;;;;;5077190;28;20043;-65
2022/07/17 00:56:05;;;;;;;6.82;2.70;;;12.40;99.90;;;;;;5076044;28;20036;-65
2022/07/17 00:58:34;;;;;;;4.35;3.33;;;12.30;99.90;;;;;;5077290;28;20037;-65
2022/07/17 01:01:05;;;;;;;6.47;2.70;;;12.30;99.90;;;;;;5077124;28;20465;-65
2022/07/17 01:03:32;;;;;;;4.00;2.28;;;12.30;99.90;;;;;;5077184;28;20032;-65
2022/07/17 01:05:58;;;;;;;8.05;2.80;;;12.30;99.90;;;;;;5076753;28;20475;-66
2022/07/17 01:08:24;;;;;;;6.45;2.63;;;12.20;99.90;;;;;;5076743;28;20033;-65
2022/07/17 01:10:50;;;;;;;5.25;2.30;;;12.20;99.90;;;;;;5076967;28;20041;-65
2022/07/17 01:13:16;;;;;;;6.68;2.92;;;12.20;99.90;;;;;;5077038;28;20071;-65
2022/07/17 01:15:43;;;;;;;4.22;2.42;;;12.20;99.90;;;;;;5077121;28;20066;-65
2022/07/17 01:18:12;;;;;;;6.60;3.33;;;12.20;99.90;;;;;;5076909;28;20044;-65
2022/07/17 01:20:39;;;;;;;3.53;2.53;;;12.20;99.90;;;;;;5076829;28;20082;-65
2022/07/17 01:23:05;;;;;;;3.38;2.67;;;12.10;99.90;;;;;;5076517;28;20427;-65
2022/07/17 01:25:31;;;;;;;4.00;2.47;;;12.10;99.90;;;;;;5076679;28;20086;-64
2022/07/17 01:27:57;;;;;;;7.53;2.80;;;12.10;99.90;;;;;;5076713;28;20032;-65
2022/07/17 01:30:23;;;;;;;5.75;3.10;;;12.10;99.90;;;;;;5076433;28;20040;-65
2022/07/17 01:32:49;;;;;;;5.60;2.63;;;12.00;99.90;;;;;;5076597;28;20059;-64
2022/07/17 01:35:15;;;;;;;5.13;2.58;;;12.00;99.90;;;;;;5076428;28;20521;-65
2022/07/17 01:37:42;;;;;;;4.40;2.42;;;12.10;99.90;;;;;;5076984;28;20086;-65
2022/07/17 01:40:12;;;;;;;2.72;2.08;;;11.90;99.90;;;;;;5076480;28;20036;-65
2022/07/17 01:42:39;;;;;;;8.55;2.72;;;12.00;99.90;;;;;;5076412;28;20070;-65
2022/07/17 01:45:05;;;;;;;6.78;2.70;;;12.00;99.90;;;;;;5075797;28;20090;-65
2022/07/17 01:47:31;;;;;;;3.95;2.55;;;12.00;99.90;;;;;;5076309;28;20033;-64
2022/07/17 01:49:57;;;;;;;7.28;3.15;;;11.90;99.90;;;;;;5076322;28;20036;-65
2022/07/17 01:52:24;;;;;;;5.68;2.38;;;11.90;99.90;;;;;;5076185;28;20502;-65
2022/07/17 01:54:51;;;;;;;7.55;2.53;;;11.80;99.90;;;;;;5076131;28;20036;-65
2022/07/17 01:57:18;;;;;;;4.55;2.50;;;11.80;99.90;;;;;;5075969;28;20491;-65
2022/07/17 01:59:43;;;;;;;5.30;2.30;;;11.80;99.90;;;;;;5076179;28;20041;-64
2022/07/17 02:02:11;;;;;;;5.22;2.78;;;11.80;99.90;;;;;;5075955;28;20544;-65
2022/07/17 02:04:38;;;;;;;5.07;2.88;;;11.90;99.90;;;;;;5076044;28;20093;-65
2022/07/17 02:07:04;;;;;;;5.95;2.97;;;11.80;99.90;;;;;;5075919;28;20048;-64
2022/07/17 02:09:30;;;;;;;5.53;2.70;;;11.80;99.90;;;;;;5075968;28;20044;-65
2022/07/17 02:11:56;;;;;;;5.05;2.63;;;11.80;99.90;;;;;;5075911;28;20166;-65
2022/07/17 02:14:22;;;;;;;5.97;2.92;;;11.80;99.90;;;;;;5075884;28;20044;-64
2022/07/17 02:16:48;;;;;;;4.13;3.05;;;11.70;99.90;;;;;;5075564;28;20037;-64
2022/07/17 02:19:13;;;;;;;4.00;2.80;;;11.60;99.90;;;;;;5075833;28;20364;-65
2022/07/17 02:21:39;;;;;;;5.90;2.53;;;11.50;99.90;;;;;;5075639;28;20404;-64
2022/07/17 02:24:05;;;;;;;3.95;2.60;;;11.60;99.90;;;;;;5075291;28;20510;-65
2022/07/17 02:26:31;;;;;;;6.03;3.10;;;11.50;99.90;;;;;;5075495;28;20391;-65
2022/07/17 02:28:57;;;;;;;7.10;2.63;;;11.50;99.90;;;;;;5074076;28;20417;-64
2022/07/17 02:31:23;;;;;;;4.38;2.53;;;11.50;99.90;;;;;;5075555;28;20032;-64
2022/07/17 02:33:48;;;;;;;6.90;2.75;;;11.50;99.90;;;;;;5075477;28;20039;-65
2022/07/17 02:36:14;;;;;;;5.28;3.00;;;11.60;99.90;;;;;;5075441;28;20098;-65
2022/07/17 02:38:40;;;;;;;7.18;3.35;;;11.60;99.90;;;;;;5075158;28;20486;-65
2022/07/17 02:41:06;;;;;;;4.43;3.03;;;11.60;99.90;;;;;;5075121;28;20040;-65
2022/07/17 02:43:31;;;;;;;7.05;3.25;;;11.60;99.90;;;;;;5075280;28;20041;-64
2022/07/17 02:45:57;;;;;;;4.63;3.00;;;11.60;99.90;;;;;;5075074;28;20060;-64
2022/07/17 02:48:23;;;;;;;4.40;3.10;;;11.60;99.90;;;;;;5075159;28;20036;-65
2022/07/17 02:50:49;;;;;;;6.88;3.88;;;11.50;99.90;;;;;;5074900;28;20032;-65
2022/07/17 02:53:14;;;;;;;6.93;4.15;;;11.60;99.90;;;;;;5073938;28;20055;-64
2022/07/17 02:55:40;;;;;;;8.07;2.85;;;11.60;99.90;;;;;;5074133;28;20127;-65
2022/07/17 02:58:05;;;;;;;3.10;2.03;;;11.70;99.90;;;;;;5075052;28;20124;-64
2022/07/17 03:00:31;;;;;;;4.47;2.30;;;11.70;99.90;;;;;;5074962;28;20044;-65
2022/07/17 03:02:57;;;;;;;3.15;2.25;;;11.70;99.90;;;;;;5075039;28;20044;-64
2022/07/17 03:05:23;;;;;;;5.90;2.38;;;11.60;99.90;;;;;;5074464;28;20059;-64
2022/07/17 03:07:48;;;;;;;5.43;2.75;;;11.60;99.90;;;;;;5074609;28;20040;-65
2022/07/17 03:10:15;;;;;;;6.35;2.65;;;11.60;99.90;;;;;;5074747;28;20045;-64
2022/07/17 03:12:41;;;;;;;7.60;3.20;;;11.50;99.90;;;;;;5074527;28;20482;-65
2022/07/17 03:15:08;;;;;;;9.43;3.00;;;11.50;99.90;;;;;;5074557;28;20050;-64
2022/07/17 03:17:35;;;;;;;7.97;3.00;;;11.40;99.90;;;;;;5074657;28;20075;-65
2022/07/17 03:20:01;;;;;;;3.88;2.60;;;11.40;99.90;;;;;;5074468;28;20048;-64
2022/07/17 03:22:26;;;;;;;4.75;2.65;;;11.30;99.90;;;;;;5074307;28;20072;-63
2022/07/17 03:24:52;;;;;;;6.20;3.30;;;11.30;99.90;;;;;;5074367;28;20090;-64
2022/07/17 03:27:18;;;;;;;4.88;3.38;;;11.30;99.90;;;;;;5074385;28;20043;-65
2022/07/17 03:29:45;;;;;;;5.50;3.35;;;11.30;99.90;;;;;;5074424;28;20406;-65
2022/07/17 03:32:10;;;;;;;6.53;2.70;;;11.30;99.90;;;;;;5074401;28;20402;-64
2022/07/17 03:34:37;;;;;;;6.30;2.80;;;11.30;99.90;;;;;;5074171;28;20036;-66
2022/07/17 03:37:03;;;;;;;7.15;3.25;;;11.20;99.90;;;;;;5074313;28;20421;-65
2022/07/17 03:39:29;;;;;;;5.03;2.72;;;11.20;99.90;;;;;;5074270;28;20478;-65
2022/07/17 03:41:55;;;;;;;4.22;2.53;;;11.10;99.90;;;;;;5074187;28;20043;-65
2022/07/17 03:44:21;;;;;;;5.18;2.60;;;11.20;99.90;;;;;;5074103;28;20036;-65
2022/07/17 03:46:46;;;;;;;4.30;2.22;;;11.20;99.90;;;;;;5074132;28;20066;-64
2022/07/17 03:49:15;;;;;;;6.72;3.00;;;11.20;99.90;;;;;;5073973;28;20039;-65
2022/07/17 03:51:41;;;;;;;4.63;3.08;;;11.30;99.90;;;;;;5072945;28;20430;-64
2022/07/17 03:54:07;;;;;;;5.25;3.17;;;11.30;99.90;;;;;;5072648;28;20037;-65
2022/07/17 03:56:32;;;;;;;4.75;2.72;;;11.30;99.90;;;;;;5073920;28;20093;-64
2022/07/17 03:58:58;;;;;;;8.27;3.45;;;11.30;99.90;;;;;;5074013;28;20036;-65
2022/07/17 04:01:24;;;;;;;5.55;3.28;;;11.30;99.90;;;;;;5073935;28;20049;-65
2022/07/17 04:03:49;;;;;;;6.93;3.13;;;11.80;99.90;;;;;;5073858;28;20076;-56
2022/07/17 04:06:15;;;;;;;4.93;2.70;;;11.40;99.90;;;;;;5073578;28;20437;-55
2022/07/17 04:08:41;;;;;;;5.97;2.90;;;11.40;99.90;;;;;;5074185;28;20048;-55
2022/07/17 04:11:07;;;;;;;8.23;3.03;;;11.50;99.90;;;;;;5073820;28;20055;-56
2022/07/17 04:13:32;;;;;;;5.75;2.38;;;11.50;99.90;;;;;;5073651;28;20120;-56
2022/07/17 04:15:59;;;;;;;3.95;2.78;;;11.60;99.90;;;;;;5073892;28;20043;-55
2022/07/17 04:18:34;;;;;;;5.88;3.45;;;11.60;99.90;;;;;;5073814;28;20052;-56
2022/07/17 04:21:05;;;;;;;11.40;3.33;;;11.60;99.90;;;;;;5073546;28;20032;-56
2022/07/17 04:23:31;;;;;;;4.40;3.05;;;11.50;99.90;;;;;;5073485;28;20520;-56
2022/07/17 04:25:57;;;;;;;5.88;3.45;;;11.60;99.90;;;;;;5073698;28;20049;-56
2022/07/17 04:28:24;;;;;;;6.70;3.28;;;11.60;99.90;;;;;;5073696;28;20032;-56
2022/07/17 04:30:49;;;;;;;4.38;3.20;;;11.70;99.90;;;;;;5073721;28;20033;-57
2022/07/17 04:33:15;;;;;;;5.40;3.55;;;11.70;99.90;;;;;;5073597;28;20040;-56
2022/07/17 04:35:41;;;;;;;4.78;3.15;;;11.90;99.90;;;;;;5073634;28;20390;-56
2022/07/17 04:38:08;;;;;;;7.47;3.28;;;11.60;99.90;;;;;;5073645;28;20040;-56
2022/07/17 04:40:36;;;;;;;5.43;3.90;;;11.70;99.90;;;;;;5073457;28;20123;-56
2022/07/17 04:43:02;;;;;;;9.32;4.28;;;11.70;99.90;;;;;;5072584;28;20151;-56
2022/07/17 04:45:28;;;;;;;6.93;3.47;;;11.80;99.90;;;;;;5073414;28;20419;-56
2022/07/17 04:47:54;;;;;;;5.97;3.53;;;11.70;99.90;;;;;;5072339;28;20033;-56
2022/07/17 04:50:20;;;;;;;4.88;3.10;;;11.70;99.90;;;;;;5073542;28;20523;-56
2022/07/17 04:52:45;;;;;;;7.88;4.07;;;11.80;99.90;;;;;;5073302;28;20055;-57
2022/07/17 04:55:11;;;;;;;5.20;3.08;;;11.80;99.90;;;;;;5073456;28;20032;-57
2022/07/17 04:57:37;;;;;;;4.93;2.90;;;11.80;99.90;;;;;;5072405;28;20475;-57
2022/07/17 05:00:05;;;;;;;5.53;3.30;;;11.80;99.90;;;;;;5073307;28;20037;-56
2022/07/17 05:02:30;;;;;;;6.82;3.05;;;11.90;99.90;;;;;;5073886;28;20097;-56
2022/07/17 05:04:56;;;;;;;5.25;3.35;;;11.90;99.90;;;;;;5073167;28;20499;-57
2022/07/17 05:07:21;;;;;;;4.25;2.47;;;12.00;99.90;;;;;;5073273;28;20502;-58
2022/07/17 05:09:47;;;;;;;5.88;3.20;;;12.10;99.90;;;;;;5073356;28;20033;-57
2022/07/17 05:12:13;;;;;;;3.85;2.60;;;12.10;99.90;;;;;;5073255;28;20394;-56
2022/07/17 05:14:39;;;;;;;5.53;3.08;;;12.20;99.90;;;;;;5073101;28;20086;-56
2022/07/17 05:17:05;;;;;;;7.78;2.80;;;12.20;99.90;;;;;;5073059;28;20094;-56
2022/07/17 05:19:30;;;;;;;5.88;3.65;;;12.20;99.90;;;;;;5074807;28;20445;-56
2022/07/17 05:21:56;;;;;;;9.63;3.15;;;12.30;99.90;;;;;;5076870;28;20068;-56
2022/07/17 05:24:21;;;;;;;4.28;3.28;;;12.30;99.90;;;;;;5076337;28;20147;-56
2022/07/17 05:26:47;;;;;;;4.35;2.90;;;12.30;99.90;;;;;;5076712;28;20471;-56
2022/07/17 05:29:13;;;;;;;7.72;3.28;;;12.40;99.90;;;;;;5076599;28;20029;-57
2022/07/17 05:31:38;;;;;;;7.22;3.60;;;12.40;99.90;;;;;;5076778;28;20115;-56
2022/07/17 05:34:04;;;;;;;6.18;2.80;;;12.50;99.90;;;;;;5076636;28;20025;-56
2022/07/17 05:36:29;;;;;;;8.73;2.90;;;12.50;99.90;;;;;;5077550;28;20475;-56
2022/07/17 05:38:55;;;;;;;9.20;2.97;;;12.60;99.90;;;;;;5076434;28;20036;-56
2022/07/17 05:41:21;;;;;;;8.27;3.10;;;12.70;99.90;;;;;;5076570;28;20044;-57
2022/07/17 05:43:46;;;;;;;5.10;2.92;;;12.70;99.90;;;;;;5075292;28;20051;-56
2022/07/17 05:46:12;;;;;;;10.30;3.00;;;12.70;99.90;;;;;;5075203;28;20502;-55
2022/07/17 05:48:38;;;;;;;5.70;2.88;;;12.70;99.90;;;;;;5076209;28;20119;-56
2022/07/17 05:51:03;;;;;;;4.45;2.90;;;12.80;99.90;;;;;;5076360;28;20043;-57
2022/07/17 05:53:29;;;;;;;5.30;2.80;;;12.90;99.90;;;;;;5076436;28;20037;-57
2022/07/17 05:55:54;;;;;;;8.13;2.90;;;13.00;99.90;;;;;;5076202;28;20128;-56
2022/07/17 05:58:20;;;;;;;11.07;4.18;;;13.30;99.90;;;;;;5076118;28;20040;-56
2022/07/17 06:00:48;;;;;;;4.03;2.55;;;13.50;99.90;;;;;;5076214;28;20043;-56
2022/07/17 06:03:14;;;;;;;5.83;2.60;;;13.70;99.90;;;;;;5075992;28;20475;-57
2022/07/17 06:05:40;;;;;;;7.15;2.72;;;13.70;99.90;;;;;;5075945;28;20306;-56
2022/07/17 06:08:06;;;;;;;9.15;2.50;;;13.90;99.90;;;;;;5076286;28;20045;-57
2022/07/17 06:10:32;;;;;;;7.68;3.35;;;14.10;99.90;;;;;;5076074;28;20048;-56
2022/07/17 06:12:57;;;;;;;10.00;2.58;;;14.30;99.90;;;;;;5075773;28;20036;-54
2022/07/17 06:15:24;;;;;;;5.85;2.47;;;14.40;99.90;;;;;;5075956;28;20041;-55
2022/07/17 06:17:50;;;;;;;3.85;1.92;;;14.50;99.90;;;;;;5075955;28;20474;-55
2022/07/17 06:20:16;;;;;;;7.45;2.22;;;14.70;99.90;;;;;;5075727;28;20469;-56
2022/07/17 06:22:43;;;;;;;7.63;2.33;;;14.90;99.90;;;;;;5075715;28;20033;-56
2022/07/17 06:25:10;;;;;;;5.50;1.80;;;15.10;99.90;;;;;;5075466;28;20052;-58
2022/07/17 06:27:38;;;;;;;8.60;2.05;;;15.20;99.90;;;;;;5075387;28;20045;-56
2022/07/17 06:30:04;;;;;;;7.97;1.80;;;15.40;99.90;;;;;;5075343;28;20368;-56
2022/07/17 06:32:29;;;;;;;6.07;1.88;;;15.60;99.90;;;;;;5075693;28;20597;-56
2022/07/17 06:34:55;;;;;;;3.72;1.58;;;15.90;99.90;;;;;;5075438;28;20064;-56
2022/07/17 06:37:21;;;;;;;6.18;1.58;;;16.20;99.90;;;;;;5074429;28;20471;-57
2022/07/17 06:39:47;;;;;;;6.93;1.50;;;16.20;99.90;;;;;;5075436;28;20040;-56
2022/07/17 06:42:12;;;;;;;7.30;1.05;;;16.20;99.90;;;;;;5074103;28;20444;-55
2022/07/17 06:44:38;;;;;;;5.32;1.00;;;16.20;99.90;;;;;;5075352;28;20044;-56
2022/07/17 06:47:04;;;;;;;6.22;1.55;;;16.20;99.90;;;;;;5075186;28;20039;-56
2022/07/17 06:49:29;;;;;;;4.80;1.35;;;16.30;99.90;;;;;;5075218;28;20395;-55
2022/07/17 06:51:55;;;;;;;3.95;1.10;;;16.20;99.90;;;;;;5075203;28;20040;-56
2022/07/17 06:54:25;;;;;;;7.85;1.58;;;16.20;99.90;;;;;;5075095;28;20040;-65
2022/07/17 06:56:52;;;;;;;6.03;1.42;;;16.10;99.90;;;;;;5075021;28;20098;-65
2022/07/17 06:59:18;;;;;;;2.42;1.30;;;16.10;99.90;;;;;;5075423;28;20051;-66
2022/07/17 07:01:43;;;;;;;4.13;1.48;;;16.10;99.90;;;;;;5074984;28;20111;-65
2022/07/17 07:04:09;;;;;;;4.28;0.90;;;16.10;99.90;;;;;;5074942;28;20574;-65
2022/07/17 07:06:35;;;;;;;6.07;1.40;;;16.20;99.90;;;;;;5074712;28;20082;-65
2022/07/17 07:09:01;;;;;;;7.90;1.55;;;16.20;99.90;;;;;;5074818;28;20039;-65
2022/07/17 07:11:26;;;;;;;7.28;1.67;;;16.10;99.90;;;;;;5074511;28;20426;-65
2022/07/17 07:13:52;;;;;;;8.15;1.60;;;16.20;99.90;;;;;;5074432;28;20097;-65
2022/07/17 07:16:18;;;;;;;8.85;1.67;;;16.20;99.90;;;;;;5074579;28;20127;-65
2022/07/17 07:18:43;;;;;;;7.93;1.30;;;16.20;99.90;;;;;;5074642;28;20040;-66
2022/07/17 07:21:09;;;;;;;4.25;1.10;;;16.20;99.90;;;;;;5074490;28;20036;-65
2022/07/17 07:23:35;;;;;;;3.70;0.90;;;16.20;99.90;;;;;;5073356;28;20052;-65
2022/07/17 07:26:01;;;;;;;3.20;1.52;;;16.20;99.90;;;;;;5074450;28;20044;-65
2022/07/17 07:28:28;;;;;;;8.30;1.40;;;16.20;99.90;;;;;;5074434;28;20075;-66
2022/07/17 07:30:53;;;;;;;5.45;1.15;;;16.30;99.90;;;;;;5074321;28;20044;-65
2022/07/17 07:33:19;;;;;;;6.70;1.40;;;16.30;99.90;;;;;;5074374;28;20044;-64
2022/07/17 07:35:44;;;;;;;3.60;0.93;;;16.30;99.90;;;;;;5074359;28;20510;-66
2022/07/17 07:38:10;;;;;;;5.38;1.30;;;16.40;99.90;;;;;;5074069;28;20040;-64
2022/07/17 07:40:36;;;;;;;3.85;1.20;;;16.40;99.90;;;;;;5073290;28;20042;-64
2022/07/17 07:43:02;;;;;;;3.58;1.13;;;16.40;99.90;;;;;;5073966;28;20475;-64
2022/07/17 07:45:28;;;;;;;7.40;1.42;;;16.50;99.90;;;;;;5073954;28;20476;-65
2022/07/17 07:47:54;;;;;;;7.15;1.15;;;16.50;99.90;;;;;;5072772;28;20056;-64
2022/07/17 07:50:23;;;;;;;3.88;0.98;;;16.70;99.90;;;;;;5074018;28;20431;-64
2022/07/17 07:52:49;;;;;;;;;;;16.80;99.90;;;;;;5074427;28;20044;-65
2022/07/17 07:55:15;;;;;;;7.38;1.42;;;16.80;99.90;;;;;;5074137;28;19921;-64
2022/07/17 07:57:41;;;;;;;6.43;1.58;;;16.90;99.90;;;;;;5074041;28;20490;-65
2022/07/17 08:00:09;;;;;;;3.38;1.02;;;17.00;99.90;;;;;;5074015;28;20043;-65
2022/07/17 08:02:35;;;;;;;5.80;1.13;;;17.00;99.90;;;;;;5074245;28;20039;-64
2022/07/17 08:05:00;;;;;;;7.53;1.00;;;17.10;99.90;;;;;;5073820;28;20356;-66
2022/07/17 08:07:27;;;;;;;6.55;1.30;;;17.20;99.90;;;;;;5073832;28;20072;-64
2022/07/17 08:09:53;;;;;;;3.88;1.42;;;17.40;99.90;;;;;;5073886;28;20119;-65
2022/07/17 08:12:19;;;;;;;4.82;1.10;;;17.80;99.90;;;;;;5073900;28;20041;-63
2022/07/17 08:14:45;;;;;;;5.55;1.65;;;18.10;99.90;;;;;;5073710;28;20032;-64
2022/07/17 08:17:11;;;;;;;5.28;1.10;;;18.30;99.90;;;;;;5073841;28;20041;-63
2022/07/17 08:19:36;;;;;;;7.07;1.17;;;18.70;99.90;;;;;;5073579;28;20471;-63
2022/07/17 08:22:02;;;;;;;6.18;1.10;;;18.90;99.90;;;;;;5073722;28;20116;-63
2022/07/17 08:24:28;;;;;;;6.07;1.27;;;19.20;99.90;;;;;;5072226;28;20040;-63
2022/07/17 08:26:53;;;;;;;8.90;1.50;;;19.50;99.90;;;;;;5073534;28;20505;-63
2022/07/17 08:29:19;;;;;;;6.88;1.20;;;19.50;99.90;;;;;;5073714;28;20039;-60
2022/07/17 08:31:44;;;;;;;5.30;1.10;;;19.70;99.90;;;;;;5073700;28;20083;-60
2022/07/17 08:34:10;;;;;;;6.18;1.15;;;20.50;99.90;;;;;;5072601;28;20121;-61
2022/07/17 08:36:36;;;;;;;4.03;0.80;;;21.60;99.90;;;;;;5073579;28;20040;-60
2022/07/17 08:39:02;;;;;;;5.18;1.58;;;22.00;99.90;;;;;;5073432;28;20044;-60
2022/07/17 08:41:29;;;;;;;2.40;1.05;;;22.90;99.90;;;;;;5073349;28;20478;-61
2022/07/17 08:43:56;;;;;;;5.65;1.00;;;23.60;99.90;;;;;;5073597;28;20090;-60
2022/07/17 08:46:25;;;;;;;5.18;1.38;;;24.30;99.90;;;;;;5073433;28;20102;-61
2022/07/17 08:48:56;;;;;;;5.78;1.23;;;24.50;99.90;;;;;;5072197;28;20063;-60
2022/07/17 08:51:24;;;;;;;3.15;0.90;;;24.20;99.90;;;;;;5072693;28;20444;-61
2022/07/17 08:53:49;;;;;;;11.93;1.97;;;24.40;99.90;;;;;;5074314;28;20032;-61
2022/07/17 08:56:15;;;;;;;5.80;0.93;;;24.60;99.90;;;;;;5077308;28;20769;-61
2022/07/17 08:58:40;;;;;;;6.20;0.90;;;24.80;99.90;;;;;;5077363;28;20037;-61
2022/07/17 09:01:06;;;;;;;2.58;0.70;;;24.90;99.90;;;;;;5077310;28;20051;-61
2022/07/17 09:03:32;;;;;;;5.38;1.13;;;25.10;99.90;;;;;;5077229;28;20078;-61
2022/07/17 09:05:58;;;;;;;5.40;1.30;;;25.30;99.90;;;;;;5077038;28;20143;-60
2022/07/17 09:08:24;;;;;;;3.55;0.90;;;25.50;99.90;;;;;;5077190;28;20037;-62
2022/07/17 09:10:52;;;;;;;5.05;0.93;;;25.50;99.90;;;;;;5076883;28;20051;-62
2022/07/17 09:13:28;;;;;;;2.53;0.93;;;26.60;99.90;;;;;;5076976;28;20537;-62
2022/07/17 09:16:05;;;;;;;4.75;1.20;;;26.60;99.50;;;;;;5077013;28;20048;-62
2022/07/17 09:18:31;;;;;;;3.25;0.95;;;26.50;99.80;;;;;;5076800;28;20040;-62
2022/07/17 09:20:57;;;;;;;5.85;1.25;;;26.80;99.90;;;;;;5076977;28;20037;-62
2022/07/17 09:23:25;;;;;;;7.53;1.10;;;26.60;99.90;;;;;;5076409;28;20121;-62
2022/07/17 09:25:54;;;;;;;4.88;1.05;;;26.70;99.20;;;;;;5076760;28;20040;-62
2022/07/17 09:28:20;;;;;;;3.63;1.10;;;27.20;99.00;;;;;;5075451;28;20382;-62
2022/07/17 09:30:52;;;;;;;27.13;1.55;;;26.70;98.60;;;;;;5076705;28;20041;-62
2022/07/17 09:33:21;;;;;;;4.28;1.30;;;27.30;98.20;;;;;;5076623;28;20063;-62
2022/07/17 09:35:53;;;;;;;6.10;0.90;;;27.30;98.40;;;;;;5076654;28;20036;-62
2022/07/17 09:38:32;;;;;;;6.32;1.17;;;27.70;98.30;;;;;;5076662;28;20040;-62
2022/07/17 09:41:11;;;;;;;2.80;1.00;;;27.10;97.40;;;;;;5076568;28;20398;-62
2022/07/17 09:44:00;;;;;;;3.08;1.00;;;27.30;97.70;;;;;;5076524;28;20518;-61
2022/07/17 09:46:31;;;;;;;7.20;1.05;;;26.80;97.80;;;;;;5076462;28;20383;-61
2022/07/17 09:49:03;;;;;;;5.40;1.45;;;26.90;98.10;;;;;;5076455;28;20137;-62
2022/07/17 09:51:31;;;;;;;4.30;0.90;;;27.20;98.40;;;;;;5076246;28;20036;-61
2022/07/17 09:54:00;;;;;;;3.80;1.40;;;27.10;98.60;;;;;;5076425;28;20037;-61
2022/07/17 09:56:28;;;;;;;3.55;1.40;;;27.70;98.10;;;;;;5076256;28;20052;-62
2022/07/17 09:58:59;;;;;;;2.28;0.90;;;28.30;98.10;;;;;;5076135;28;20051;-62
2022/07/17 10:01:25;;;;;;;3.05;1.13;;;28.30;98.10;;;;;;5076136;28;20080;-62
2022/07/17 10:03:53;;;;;;;6.40;1.25;;;27.90;97.40;;;;;;5076148;28;20447;-62
2022/07/17 10:06:20;;;;;;;5.10;1.20;;;28.60;96.60;;;;;;5075571;28;20382;-62
2022/07/17 10:08:46;;;;;;;1.65;0.90;;;28.30;96.10;;;;;;5076359;28;20036;-62
2022/07/17 10:11:15;;;;;;;3.25;0.88;;;28.30;96.90;;;;;;5075996;28;20044;-62
2022/07/17 10:13:45;;;;;;;3.53;1.45;;;28.30;96.50;;;;;;5075837;28;20494;-62
2022/07/17 10:16:11;;;;;;;2.67;1.17;;;28.20;96.50;;;;;;5075916;28;20044;-62
2022/07/17 10:18:43;;;;;;;1.77;0.70;;;27.60;97.40;;;;;;5074578;28;20040;-61
2022/07/17 10:21:14;;;;;;;3.70;1.23;;;28.00;97.50;;;;;;5075842;28;20040;-62
2022/07/17 10:23:47;;;;;;;3.08;0.98;;;28.00;96.00;;;;;;5075288;28;20593;-61
2022/07/17 10:26:13;;;;;;;5.07;1.00;;;28.40;96.20;;;;;;5075642;28;20045;-62
2022/07/17 10:28:47;;;;;;;6.18;1.20;;;29.30;96.00;;;;;;5075700;28;20040;-62
2022/07/17 10:31:27;;;;;;;3.55;1.10;;;29.50;95.10;;;;;;5075335;28;20116;-61
2022/07/17 10:33:56;;;;;;;5.45;1.50;;;29.50;95.60;;;;;;5075910;28;20045;-63
2022/07/17 10:36:39;;;;;;;3.63;1.02;;;29.10;96.10;;;;;;5075419;28;20053;-62
2022/07/17 10:39:15;;;;;;;5.07;1.02;;;29.10;95.60;;;;;;5075456;28;20386;-62
2022/07/17 10:41:42;;;;;;;2.63;1.13;;;29.10;95.00;;;;;;5075338;28;20380;-62
2022/07/17 10:44:08;;;;;;;3.65;1.38;;;29.10;95.70;;;;;;5075319;28;20075;-62
2022/07/17 10:46:34;;;;;;;7.55;1.10;;;29.50;96.00;;;;;;5075248;28;20040;-61
2022/07/17 10:49:03;;;;;;;3.00;1.00;;;29.20;95.80;;;;;;5075609;28;20090;-61
2022/07/17 10:51:30;;;;;;;3.92;1.10;;;29.50;94.90;;;;;;5075222;28;20040;-61
2022/07/17 10:53:58;;;;;;;4.78;1.17;;;29.90;95.20;;;;;;5075128;28;20044;-60
2022/07/17 10:56:25;;;;;;;2.53;0.98;;;29.70;95.60;;;;;;5075507;28;20044;-61
2022/07/17 10:58:52;;;;;;;2.40;1.23;;;30.10;95.10;;;;;;5075037;28;20048;-61
2022/07/17 11:01:19;;;;;;;3.25;1.23;;;30.70;95.20;;;;;;5074980;28;20067;-60
2022/07/17 11:03:52;;;;;;;5.82;1.30;;;30.60;95.30;;;;;;5075334;28;20043;-61
2022/07/17 11:06:21;;;;;;;4.78;1.10;;;30.20;94.80;;;;;;5074867;28;20040;-61
2022/07/17 11:09:00;;;;;;;3.55;0.90;;;30.80;94.30;;;;;;5074453;28;20154;-60
2022/07/17 11:11:41;;;;;;;;;;;30.70;93.70;;;;;;5075246;28;20036;-60
2022/07/17 11:14:07;;;;;;;3.78;1.10;;;30.90;94.90;;;;;;5074604;28;20456;-60
2022/07/17 11:16:33;;;;;;;4.05;1.05;;;30.30;93.90;;;;;;5073917;28;20052;-61
2022/07/17 11:18:59;;;;;;;4.25;1.05;;;30.30;94.20;;;;;;5074635;28;20041;-61
2022/07/17 11:21:24;;;;;;;3.47;1.35;;;30.50;94.50;;;;;;5074819;28;20462;-61
2022/07/17 11:23:53;;;;;;;2.60;1.17;;;30.70;94.50;;;;;;5074354;28;20072;-61
2022/07/17 11:26:20;;;;;;;3.67;1.17;;;30.60;94.30;;;;;;5074414;28;20045;-60
2022/07/17 11:28:50;;;;;;;4.18;1.38;;;30.70;93.70;;;;;;5074488;28;20044;-61
2022/07/17 11:31:23;;;;;;;2.25;1.00;;;31.10;94.20;;;;;;5074394;28;20044;-61
2022/07/17 11:33:54;;;;;;;4.40;1.08;;;31.00;93.70;;;;;;5073319;28;20041;-61
2022/07/17 11:36:31;;;;;;;2.33;1.02;;;30.80;93.40;;;;;;5074270;28;20089;-60
2022/07/17 11:38:58;;;;;;;2.95;0.93;;;30.80;93.70;;;;;;5074087;28;20384;-60
2022/07/17 11:41:43;;;;;;;2.55;1.10;;;30.50;94.20;;;;;;5074264;28;20079;-60
2022/07/17 11:44:12;;;;;;;3.72;1.35;;;31.00;93.80;;;;;;5074161;28;20545;-60
2022/07/17 11:46:41;;;;;;;3.50;1.10;;;31.50;93.80;;;;;;5072803;28;20055;-60
2022/07/17 11:49:07;;;;;;;3.20;1.27;;;31.40;93.50;;;;;;5074123;28;20033;-61
2022/07/17 11:51:44;;;;;;;3.38;1.20;;;31.30;94.00;;;;;;5074164;28;20057;-61
2022/07/17 11:54:15;;;;;;;2.10;1.20;;;31.10;92.60;;;;;;5074093;28;20040;-60
2022/07/17 11:56:52;;;;;;;2.10;1.33;;;31.40;93.40;;;;;;5074011;28;20083;-61
2022/07/17 11:59:27;;;;;;;3.10;1.10;;;31.40;93.60;;;;;;5074099;28;20036;-61
2022/07/17 12:01:54;;;;;;;5.53;1.80;;;31.00;92.10;;;;;;5073893;28;20111;-61
2022/07/17 12:04:20;;;;;;;2.60;1.23;;;30.70;93.00;;;;;;5073939;28;20046;-62
2022/07/17 12:06:57;;;;;;;3.83;0.95;;;30.30;93.90;;;;;;5072711;28;20124;-61
2022/07/17 12:09:27;;;;;;;2.40;1.13;;;30.20;94.20;;;;;;5073918;28;20120;-61
2022/07/17 12:11:53;;;;;;;3.35;1.40;;;30.10;93.80;;;;;;5073574;28;20032;-61
2022/07/17 12:14:19;;;;;;;1.50;0.93;;;30.00;94.50;;;;;;5073721;28;20398;-61
2022/07/17 12:16:45;;;;;;;4.53;1.58;;;30.20;94.80;;;;;;5073804;28;20087;-60
2022/07/17 12:19:18;;;;;;;2.38;1.17;;;30.20;94.60;;;;;;5072576;28;20128;-61
2022/07/17 12:22:04;;;;;;;1.42;1.27;;;30.40;93.70;;;;;;5073627;28;20032;-61
2022/07/17 12:24:32;;;;;;;3.53;1.65;;;30.20;93.30;;;;;;5073194;28;20495;-60
2022/07/17 12:27:00;;;;;;;3.15;1.80;;;30.10;94.00;;;;;;5073708;28;20041;-60
2022/07/17 12:29:26;;;;;;;2.85;2.10;;;30.20;93.30;;;;;;5079759;28;20112;-61
2022/07/17 12:32:04;;;;;;;3.35;2.00;;;30.40;92.50;;;;;;5080306;28;20116;-61
2022/07/17 12:34:29;;;;;;;4.40;1.92;;;30.60;92.80;;;;;;5080256;28;20205;-61
2022/07/17 12:36:55;;;;;;;3.92;1.92;;;30.60;92.90;;;;;;5080290;28;20424;-61
2022/07/17 12:39:21;;;;;;;4.53;1.90;;;30.70;92.60;;;;;;5080518;28;20041;-61
2022/07/17 12:41:46;;;;;;;2.80;1.88;;;30.40;92.70;;;;;;5080466;28;20120;-61
2022/07/17 12:44:12;;;;;;;3.67;1.77;;;30.70;93.60;;;;;;5080220;28;20047;-61
2022/07/17 12:46:38;;;;;;;3.95;1.73;;;30.60;93.10;;;;;;5080090;28;20036;-61